sensor_id;sensor_type;location;lat;lon;timestamp;pressure;altitude;pressure_sealevel;temperature;humidity
33913;BME280;20200;52.084;5.224;2023-04-08T00:00:30;153353.0;;;18.21;46.96
33913;BME280;20200;52.084;5.224;2023-04-08T00:03:43;153298.0;;;18.0;47.36
33913;BME280;20200;52.084;5.224;2023-04-08T00:05:19;153406.0;;;18.43;46.44
33913;BME280;20200;52.084;5.224;2023-04-08T00:06:55;153355.0;;;18.22;46.79
33913;BME280;20200;52.084;5.224;2023-04-08T00:08:31;153450.0;;;18.61;46.0
33913;BME280;20200;52.084;5.224;2023-04-08T00:11:44;153466.0;;;18.66;45.72
33913;BME280;20200;52.084;5.224;2023-04-08T00:13:20;153395.0;;;18.38;46.44
33913;BME280;20200;52.084;5.224;2023-04-08T00:14:56;153342.0;;;18.18;47.12
33913;BME280;20200;52.084;5.224;2023-04-08T00:18:08;153352.0;;;18.21;46.78
33913;BME280;20200;52.084;5.224;2023-04-08T00:19:45;153298.0;;;18.0;47.28
33913;BME280;20200;52.084;5.224;2023-04-08T00:21:21;153286.0;;;17.95;47.44
33913;BME280;20200;52.084;5.224;2023-04-08T00:24:34;153320.0;;;18.09;47.27
33913;BME280;20200;52.084;5.224;2023-04-08T00:26:10;153284.0;;;17.95;47.02
33913;BME280;20200;52.084;5.224;2023-04-08T00:27:46;153381.0;;;18.34;46.37
33913;BME280;20200;52.084;5.224;2023-04-08T00:30:58;153513.0;;;18.86;45.11
33913;BME280;20200;52.084;5.224;2023-04-08T00:32:35;153651.0;;;19.41;43.9
33913;BME280;20200;52.084;5.224;2023-04-08T00:34:11;153654.0;;;19.41;44.01
33913;BME280;20200;52.084;5.224;2023-04-08T00:35:47;153567.0;;;19.06;44.56
33913;BME280;20200;52.084;5.224;2023-04-08T00:38:59;153651.0;;;19.41;44.01
33913;BME280;20200;52.084;5.224;2023-04-08T00:40:35;153576.0;;;19.11;44.31
33913;BME280;20200;52.084;5.224;2023-04-08T00:42:11;153495.0;;;18.78;45.04
33913;BME280;20200;52.084;5.224;2023-04-08T00:45:24;153468.0;;;18.68;45.08
33913;BME280;20200;52.084;5.224;2023-04-08T00:47:02;153534.0;;;18.93;44.85
33913;BME280;20200;52.084;5.224;2023-04-08T00:48:39;153475.0;;;18.7;45.25
33913;BME280;20200;52.084;5.224;2023-04-08T00:51:52;153498.0;;;18.79;45.08
33913;BME280;20200;52.084;5.224;2023-04-08T00:53:30;153488.0;;;18.75;45.23
33913;BME280;20200;52.084;5.224;2023-04-08T00:55:06;153517.0;;;18.87;45.02
33913;BME280;20200;52.084;5.224;2023-04-08T00:56:42;153470.0;;;18.68;45.19
33913;BME280;20200;52.084;5.224;2023-04-08T00:59:56;153461.0;;;18.64;45.33
33913;BME280;20200;52.084;5.224;2023-04-08T01:01:39;153463.0;;;18.66;45.21
33913;BME280;20200;52.084;5.224;2023-04-08T01:03:23;153443.0;;;18.57;45.37
33913;BME280;20200;52.084;5.224;2023-04-08T01:05:13;153446.0;;;18.59;45.25
33913;BME280;20200;52.084;5.224;2023-04-08T01:08:36;153395.0;;;18.38;45.6
33913;BME280;20200;52.084;5.224;2023-04-08T01:10:17;153291.0;;;17.97;46.59
33913;BME280;20200;52.084;5.224;2023-04-08T01:12:06;153277.0;;;17.91;46.75
33913;BME280;20200;52.084;5.224;2023-04-08T01:13:44;153327.0;;;18.11;46.56
33913;BME280;20200;52.084;5.224;2023-04-08T01:17:01;153350.0;;;18.2;46.43
33913;BME280;20200;52.084;5.224;2023-04-08T01:18:37;153304.0;;;18.02;46.7
33913;BME280;20200;52.084;5.224;2023-04-08T01:20:15;153252.0;;;17.81;47.34
33913;BME280;20200;52.084;5.224;2023-04-08T01:21:54;153343.0;;;18.18;46.58
33913;BME280;20200;52.084;5.224;2023-04-08T01:25:21;153330.0;;;18.12;46.48
33913;BME280;20200;52.084;5.224;2023-04-08T01:26:59;153402.0;;;18.41;45.73
33913;BME280;20200;52.084;5.224;2023-04-08T01:28:38;153461.0;;;18.64;45.2
33913;BME280;20200;52.084;5.224;2023-04-08T01:30:17;153457.0;;;18.63;45.11
33913;BME280;20200;52.084;5.224;2023-04-08T01:33:31;153381.0;;;18.34;45.69
33913;BME280;20200;52.084;5.224;2023-04-08T01:35:08;153336.0;;;18.14;46.33
33913;BME280;20200;52.084;5.224;2023-04-08T01:36:45;153393.0;;;18.37;45.66
33913;BME280;20200;52.084;5.224;2023-04-08T01:40:01;153386.0;;;18.34;45.54
33913;BME280;20200;52.084;5.224;2023-04-08T01:41:38;153355.0;;;18.22;45.83
33913;BME280;20200;52.084;5.224;2023-04-08T01:43:16;153338.0;;;18.16;45.96
33913;BME280;20200;52.084;5.224;2023-04-08T01:44:54;153323.0;;;18.09;46.2
33913;BME280;20200;52.084;5.224;2023-04-08T01:48:11;153321.0;;;18.09;46.22
33913;BME280;20200;52.084;5.224;2023-04-08T01:49:49;153278.0;;;17.93;46.66
33913;BME280;20200;52.084;5.224;2023-04-08T01:51:27;153279.0;;;17.93;46.7
33913;BME280;20200;52.084;5.224;2023-04-08T01:54:44;153250.0;;;17.8;47.0
33913;BME280;20200;52.084;5.224;2023-04-08T01:56:21;153168.0;;;17.48;47.77
33913;BME280;20200;52.084;5.224;2023-04-08T01:57:59;153119.0;;;17.29;48.29
33913;BME280;20200;52.084;5.224;2023-04-08T01:59:37;153239.0;;;17.77;47.22
33913;BME280;20200;52.084;5.224;2023-04-08T02:02:56;153243.0;;;17.78;47.12
33913;BME280;20200;52.084;5.224;2023-04-08T02:04:34;153304.0;;;18.02;46.82
33913;BME280;20200;52.084;5.224;2023-04-08T02:06:11;153218.0;;;17.68;47.5
33913;BME280;20200;52.084;5.224;2023-04-08T02:07:48;153389.0;;;18.36;45.75
33913;BME280;20200;52.084;5.224;2023-04-08T02:11:01;153295.0;;;17.98;46.49
33913;BME280;20200;52.084;5.224;2023-04-08T02:12:37;153337.0;;;18.16;46.16
33913;BME280;20200;52.084;5.224;2023-04-08T02:14:15;153411.0;;;18.45;45.46
33913;BME280;20200;52.084;5.224;2023-04-08T02:17:39;153337.0;;;18.16;46.06
33913;BME280;20200;52.084;5.224;2023-04-08T02:19:23;153330.0;;;18.12;45.93
33913;BME280;20200;52.084;5.224;2023-04-08T02:21:08;153366.0;;;18.27;45.5
33913;BME280;20200;52.084;5.224;2023-04-08T02:22:51;153286.0;;;17.95;46.05
33913;BME280;20200;52.084;5.224;2023-04-08T02:24:40;153386.0;;;18.34;45.31
33913;BME280;20200;52.084;5.224;2023-04-08T02:27:58;153305.0;;;18.02;45.68
33913;BME280;20200;52.084;5.224;2023-04-08T02:29:39;153279.0;;;17.93;46.03
33913;BME280;20200;52.084;5.224;2023-04-08T02:31:17;153316.0;;;18.07;45.69
33913;BME280;20200;52.084;5.224;2023-04-08T02:32:56;153361.0;;;18.25;45.38
33913;BME280;20200;52.084;5.224;2023-04-08T02:36:11;153338.0;;;18.16;45.28
33913;BME280;20200;52.084;5.224;2023-04-08T02:37:49;153247.0;;;17.79;46.11
33913;BME280;20200;52.084;5.224;2023-04-08T02:39:29;153252.0;;;17.81;45.92
33913;BME280;20200;52.084;5.224;2023-04-08T02:42:42;153204.0;;;17.62;46.45
33913;BME280;20200;52.084;5.224;2023-04-08T02:44:18;153183.0;;;17.54;46.71
33913;BME280;20200;52.084;5.224;2023-04-08T02:45:55;153166.0;;;17.47;46.93
33913;BME280;20200;52.084;5.224;2023-04-08T02:47:31;153187.0;;;17.56;46.71
33913;BME280;20200;52.084;5.224;2023-04-08T02:50:43;153225.0;;;17.7;46.34
33913;BME280;20200;52.084;5.224;2023-04-08T02:52:19;153302.0;;;18.02;45.63
33913;BME280;20200;52.084;5.224;2023-04-08T02:53:55;153216.0;;;17.68;46.42
33913;BME280;20200;52.084;5.224;2023-04-08T02:57:07;153375.0;;;18.3;45.08
33913;BME280;20200;52.084;5.224;2023-04-08T02:58:44;153318.0;;;18.09;45.43
33913;BME280;20200;52.084;5.224;2023-04-08T03:00:20;153389.0;;;18.36;44.81
33913;BME280;20200;52.084;5.224;2023-04-08T03:03:32;153334.0;;;18.14;45.44
33913;BME280;20200;52.084;5.224;2023-04-08T03:05:09;153332.0;;;18.13;45.23
33913;BME280;20200;52.084;5.224;2023-04-08T03:06:45;153233.0;;;17.75;46.13
33913;BME280;20200;52.084;5.224;2023-04-08T03:09:58;153327.0;;;18.11;45.2
33913;BME280;20200;52.084;5.224;2023-04-08T03:11:35;153219.0;;;17.68;45.91
33913;BME280;20200;52.084;5.224;2023-04-08T03:13:11;153243.0;;;17.78;45.37
33913;BME280;20200;52.084;5.224;2023-04-08T03:14:47;153127.0;;;17.32;46.56
33913;BME280;20200;52.084;5.224;2023-04-08T03:18:00;153077.0;;;17.12;46.55
33913;BME280;20200;52.084;5.224;2023-04-08T03:19:37;153216.0;;;17.68;45.61
33913;BME280;20200;52.084;5.224;2023-04-08T03:21:13;153292.0;;;17.97;45.04
33913;BME280;20200;52.084;5.224;2023-04-08T03:24:25;153238.0;;;17.77;45.33
33913;BME280;20200;52.084;5.224;2023-04-08T03:26:01;153120.0;;;17.29;46.4
33913;BME280;20200;52.084;5.224;2023-04-08T03:27:37;153174.0;;;17.5;45.95
33913;BME280;20200;52.084;5.224;2023-04-08T03:30:50;153237.0;;;17.75;45.37
33913;BME280;20200;52.084;5.224;2023-04-08T03:32:26;153230.0;;;17.73;45.59
33913;BME280;20200;52.084;5.224;2023-04-08T03:34:02;153232.0;;;17.73;45.6
33913;BME280;20200;52.084;5.224;2023-04-08T03:35:38;153137.0;;;17.36;46.35
33913;BME280;20200;52.084;5.224;2023-04-08T03:38:49;153250.0;;;17.8;45.45
33913;BME280;20200;52.084;5.224;2023-04-08T03:40:26;153260.0;;;17.84;45.41
33913;BME280;20200;52.084;5.224;2023-04-08T03:42:02;153166.0;;;17.47;46.16
33913;BME280;20200;52.084;5.224;2023-04-08T03:45:14;153177.0;;;17.52;46.24
33913;BME280;20200;52.084;5.224;2023-04-08T03:46:50;153217.0;;;17.68;45.72
33913;BME280;20200;52.084;5.224;2023-04-08T03:48:26;153234.0;;;17.75;45.62
33913;BME280;20200;52.084;5.224;2023-04-08T03:51:38;153285.0;;;17.95;45.13
33913;BME280;20200;52.084;5.224;2023-04-08T03:53:15;153261.0;;;17.86;45.32
33913;BME280;20200;52.084;5.224;2023-04-08T03:54:51;153101.0;;;17.21;46.76
33913;BME280;20200;52.084;5.224;2023-04-08T03:58:03;153278.0;;;17.93;45.52
33913;BME280;20200;52.084;5.224;2023-04-08T03:59:39;153248.0;;;17.8;45.29
33913;BME280;20200;52.084;5.224;2023-04-08T04:01:15;153298.0;;;18.0;44.95
33913;BME280;20200;52.084;5.224;2023-04-08T04:02:52;153282.0;;;17.93;45.01
33913;BME280;20200;52.084;5.224;2023-04-08T04:06:04;153146.0;;;17.39;45.83
33913;BME280;20200;52.084;5.224;2023-04-08T04:07:40;153161.0;;;17.45;45.93
33913;BME280;20200;52.084;5.224;2023-04-08T04:09:16;153178.0;;;17.52;45.69
33913;BME280;20200;52.084;5.224;2023-04-08T04:12:28;153132.0;;;17.34;46.2
33913;BME280;20200;52.084;5.224;2023-04-08T04:14:05;153093.0;;;17.18;46.78
33913;BME280;20200;52.084;5.224;2023-04-08T04:15:41;153080.0;;;17.13;46.82
33913;BME280;20200;52.084;5.224;2023-04-08T04:18:53;153078.0;;;17.12;46.92
33913;BME280;20200;52.084;5.224;2023-04-08T04:20:29;153125.0;;;17.31;46.52
33913;BME280;20200;52.084;5.224;2023-04-08T04:22:05;153121.0;;;17.3;46.53
33913;BME280;20200;52.084;5.224;2023-04-08T04:25:18;153209.0;;;17.64;45.74
33913;BME280;20200;52.084;5.224;2023-04-08T04:26:54;153207.0;;;17.64;45.69
33913;BME280;20200;52.084;5.224;2023-04-08T04:28:30;153073.0;;;17.11;46.75
33913;BME280;20200;52.084;5.224;2023-04-08T04:30:07;153146.0;;;17.39;46.2
33913;BME280;20200;52.084;5.224;2023-04-08T04:33:19;153080.0;;;17.13;46.66
33913;BME280;20200;52.084;5.224;2023-04-08T04:34:55;153082.0;;;17.14;46.95
33913;BME280;20200;52.084;5.224;2023-04-08T04:36:31;153116.0;;;17.27;46.72
33913;BME280;20200;52.084;5.224;2023-04-08T04:39:44;153162.0;;;17.46;46.06
33913;BME280;20200;52.084;5.224;2023-04-08T04:41:20;153138.0;;;17.36;46.35
33913;BME280;20200;52.084;5.224;2023-04-08T04:42:56;153152.0;;;17.43;46.11
33913;BME280;20200;52.084;5.224;2023-04-08T04:46:08;153139.0;;;17.36;46.36
33913;BME280;20200;52.084;5.224;2023-04-08T04:47:44;153012.0;;;16.86;47.07
33913;BME280;20200;52.084;5.224;2023-04-08T04:49:21;153101.0;;;17.21;46.81
33913;BME280;20200;52.084;5.224;2023-04-08T04:50:58;153098.0;;;17.2;46.63
33913;BME280;20200;52.084;5.224;2023-04-08T04:54:12;153153.0;;;17.43;46.14
33913;BME280;20200;52.084;5.224;2023-04-08T04:55:48;153134.0;;;17.36;46.48
33913;BME280;20200;52.084;5.224;2023-04-08T04:57:25;153189.0;;;17.56;46.03
33913;BME280;20200;52.084;5.224;2023-04-08T05:00:38;153282.0;;;17.93;45.39
33913;BME280;20200;52.084;5.224;2023-04-08T05:02:14;153228.0;;;17.72;45.62
33913;BME280;20200;52.084;5.224;2023-04-08T05:03:51;153241.0;;;17.77;45.49
33913;BME280;20200;52.084;5.224;2023-04-08T05:07:03;153187.0;;;17.55;45.28
33913;BME280;20200;52.084;5.224;2023-04-08T05:08:39;153330.0;;;18.12;44.85
33913;BME280;20200;52.084;5.224;2023-04-08T05:10:16;153202.0;;;17.62;45.9
33913;BME280;20200;52.084;5.224;2023-04-08T05:11:52;153209.0;;;17.64;45.73
33913;BME280;20200;52.084;5.224;2023-04-08T05:15:05;153293.0;;;17.98;45.21
33913;BME280;20200;52.084;5.224;2023-04-08T05:16:41;153260.0;;;17.84;45.6
33913;BME280;20200;52.084;5.224;2023-04-08T05:18:18;153230.0;;;17.73;45.73
33913;BME280;20200;52.084;5.224;2023-04-08T05:21:30;153149.0;;;17.41;46.14
33913;BME280;20200;52.084;5.224;2023-04-08T05:23:06;153203.0;;;17.62;45.81
33913;BME280;20200;52.084;5.224;2023-04-08T05:24:42;153253.0;;;17.82;45.33
33913;BME280;20200;52.084;5.224;2023-04-08T05:27:54;153242.0;;;17.77;45.45
33913;BME280;20200;52.084;5.224;2023-04-08T05:29:30;153190.0;;;17.57;45.97
33913;BME280;20200;52.084;5.224;2023-04-08T05:31:07;153160.0;;;17.45;45.99
33913;BME280;20200;52.084;5.224;2023-04-08T05:35:55;153182.0;;;17.54;45.63
33913;BME280;20200;52.084;5.224;2023-04-08T05:37:31;153198.0;;;17.61;45.23
33913;BME280;20200;52.084;5.224;2023-04-08T05:39:07;153047.0;;;17.0;46.04
33913;BME280;20200;52.084;5.224;2023-04-08T05:42:20;153082.0;;;17.14;45.95
33913;BME280;20200;52.084;5.224;2023-04-08T05:43:56;153276.0;;;17.91;44.4
33913;BME280;20200;52.084;5.224;2023-04-08T05:45:32;153320.0;;;18.09;43.94
33913;BME280;20200;52.084;5.224;2023-04-08T05:48:44;153307.0;;;18.03;43.94
33913;BME280;20200;52.084;5.224;2023-04-08T05:50:20;153279.0;;;17.93;44.1
33913;BME280;20200;52.084;5.224;2023-04-08T05:51:56;153214.0;;;17.66;44.9
33913;BME280;20200;52.084;5.224;2023-04-08T05:55:09;153134.0;;;17.34;45.58
33913;BME280;20200;52.084;5.224;2023-04-08T05:56:45;153091.0;;;17.18;46.16
33913;BME280;20200;52.084;5.224;2023-04-08T05:58:21;153144.0;;;17.39;45.83
33913;BME280;20200;52.084;5.224;2023-04-08T06:01:33;153185.0;;;17.55;45.3
33913;BME280;20200;52.084;5.224;2023-04-08T06:03:09;153239.0;;;17.77;44.85
33913;BME280;20200;52.084;5.224;2023-04-08T06:04:46;153203.0;;;17.62;44.96
33913;BME280;20200;52.084;5.224;2023-04-08T06:06:22;153194.0;;;17.59;45.15
33913;BME280;20200;52.084;5.224;2023-04-08T06:09:34;153200.0;;;17.61;44.9
33913;BME280;20200;52.084;5.224;2023-04-08T06:11:10;153277.0;;;17.91;44.19
33913;BME280;20200;52.084;5.224;2023-04-08T06:12:46;153262.0;;;17.86;44.31
33913;BME280;20200;52.084;5.224;2023-04-08T06:16:09;153154.0;;;17.43;45.1
33913;BME280;20200;52.084;5.224;2023-04-08T06:17:46;153161.0;;;17.45;44.66
33913;BME280;20200;52.084;5.224;2023-04-08T06:19:22;153107.0;;;17.25;45.16
33913;BME280;20200;52.084;5.224;2023-04-08T06:20:58;153134.0;;;17.34;44.86
33913;BME280;20200;52.084;5.224;2023-04-08T06:24:10;153103.0;;;17.22;45.22
33913;BME280;20200;52.084;5.224;2023-04-08T06:25:46;153070.0;;;17.09;45.4
33913;BME280;20200;52.084;5.224;2023-04-08T06:27:22;153033.0;;;16.95;45.75
33913;BME280;20200;52.084;5.224;2023-04-08T06:30:35;152978.0;;;16.73;45.6
33913;BME280;20200;52.084;5.224;2023-04-08T06:32:11;152995.0;;;16.79;44.62
33913;BME280;20200;52.084;5.224;2023-04-08T06:33:47;153151.0;;;17.41;44.32
33913;BME280;20200;52.084;5.224;2023-04-08T06:36:59;153150.0;;;17.41;44.56
33913;BME280;20200;52.084;5.224;2023-04-08T06:38:35;153184.0;;;17.54;44.34
33913;BME280;20200;52.084;5.224;2023-04-08T06:40:12;153157.0;;;17.45;44.12
33913;BME280;20200;52.084;5.224;2023-04-08T06:43:24;153150.0;;;17.41;44.56
33913;BME280;20200;52.084;5.224;2023-04-08T06:45:00;153084.0;;;17.14;45.31
33913;BME280;20200;52.084;5.224;2023-04-08T06:46:36;153057.0;;;17.04;45.69
33913;BME280;20200;52.084;5.224;2023-04-08T06:48:12;153036.0;;;16.96;45.82
33913;BME280;20200;52.084;5.224;2023-04-08T06:51:25;153039.0;;;16.97;45.89
33913;BME280;20200;52.084;5.224;2023-04-08T06:53:01;153098.0;;;17.2;45.59
33913;BME280;20200;52.084;5.224;2023-04-08T06:54:37;153156.0;;;17.43;44.79
33913;BME280;20200;52.084;5.224;2023-04-08T06:57:49;153225.0;;;17.71;44.01
33913;BME280;20200;52.084;5.224;2023-04-08T06:59:26;153109.0;;;17.25;45.28
33913;BME280;20200;52.084;5.224;2023-04-08T07:01:02;153061.0;;;17.06;46.01
33913;BME280;20200;52.084;5.224;2023-04-08T07:04:14;153078.0;;;17.12;45.97
33913;BME280;20200;52.084;5.224;2023-04-08T07:05:51;153071.0;;;17.09;46.1
33913;BME280;20200;52.084;5.224;2023-04-08T07:07:26;153256.0;;;17.84;44.38
33913;BME280;20200;52.084;5.224;2023-04-08T07:09:03;153251.0;;;17.81;43.6
33913;BME280;20200;52.084;5.224;2023-04-08T07:12:15;153223.0;;;17.7;43.89
33913;BME280;20200;52.084;5.224;2023-04-08T07:13:51;153172.0;;;17.5;44.33
33913;BME280;20200;52.084;5.224;2023-04-08T07:15:27;153200.0;;;17.61;44.15
33913;BME280;20200;52.084;5.224;2023-04-08T07:18:40;153166.0;;;17.47;44.25
33913;BME280;20200;52.084;5.224;2023-04-08T07:20:16;153201.0;;;17.61;43.52
33913;BME280;20200;52.084;5.224;2023-04-08T07:21:52;153290.0;;;17.96;43.17
33913;BME280;20200;52.084;5.224;2023-04-08T07:25:05;153172.0;;;17.5;43.04
33913;BME280;20200;52.084;5.224;2023-04-08T07:26:42;153286.0;;;17.95;42.2
33913;BME280;20200;52.084;5.224;2023-04-08T07:28:18;153346.0;;;18.2;41.94
33913;BME280;20200;52.084;5.224;2023-04-08T07:31:30;153274.0;;;17.91;42.7
33913;BME280;20200;52.084;5.224;2023-04-08T07:33:06;153241.0;;;17.77;42.62
33913;BME280;20200;52.084;5.224;2023-04-08T07:34:42;153159.0;;;17.45;43.22
33913;BME280;20200;52.084;5.224;2023-04-08T07:36:19;153238.0;;;17.77;42.47
33913;BME280;20200;52.084;5.224;2023-04-08T07:39:31;153252.0;;;17.81;42.36
33913;BME280;20200;52.084;5.224;2023-04-08T07:41:07;153270.0;;;17.88;41.48
33913;BME280;20200;52.084;5.224;2023-04-08T07:42:43;153152.0;;;17.41;42.32
33913;BME280;20200;52.084;5.224;2023-04-08T07:45:59;153177.0;;;17.52;42.53
33913;BME280;20200;52.084;5.224;2023-04-08T07:47:35;153362.0;;;18.25;41.14
33913;BME280;20200;52.084;5.224;2023-04-08T07:49:11;153207.0;;;17.63;41.99
33913;BME280;20200;52.084;5.224;2023-04-08T07:52:23;153378.0;;;18.31;41.01
33913;BME280;20200;52.084;5.224;2023-04-08T07:53:59;153329.0;;;18.12;41.36
33913;BME280;20200;52.084;5.224;2023-04-08T07:55:36;153367.0;;;18.27;41.04
33913;BME280;20200;52.084;5.224;2023-04-08T07:57:12;153324.0;;;18.11;41.68
33913;BME280;20200;52.084;5.224;2023-04-08T08:00:24;153402.0;;;18.41;41.02
33913;BME280;20200;52.084;5.224;2023-04-08T08:02:00;153430.0;;;18.52;40.99
33913;BME280;20200;52.084;5.224;2023-04-08T08:03:36;153534.0;;;18.93;40.39
33913;BME280;20200;52.084;5.224;2023-04-08T08:06:49;153469.0;;;18.68;40.58
33913;BME280;20200;52.084;5.224;2023-04-08T08:08:25;153396.0;;;18.39;41.04
33913;BME280;20200;52.084;5.224;2023-04-08T08:10:01;153463.0;;;18.66;40.37
33913;BME280;20200;52.084;5.224;2023-04-08T08:13:13;153534.0;;;18.93;39.92
33913;BME280;20200;52.084;5.224;2023-04-08T08:14:50;153573.0;;;19.09;39.22
33913;BME280;20200;52.084;5.224;2023-04-08T08:16:27;153663.0;;;19.45;38.78
33913;BME280;20200;52.084;5.224;2023-04-08T08:18:03;153543.0;;;18.97;39.04
33913;BME280;20200;52.084;5.224;2023-04-08T08:21:15;153569.0;;;19.07;39.24
33913;BME280;20200;52.084;5.224;2023-04-08T08:22:51;153549.0;;;19.0;39.39
33913;BME280;20200;52.084;5.224;2023-04-08T08:24:28;153547.0;;;18.98;39.58
33913;BME280;20200;52.084;5.224;2023-04-08T08:27:42;153480.0;;;18.72;39.67
33913;BME280;20200;52.084;5.224;2023-04-08T08:29:18;153506.0;;;18.82;38.97
33913;BME280;20200;52.084;5.224;2023-04-08T08:30:54;153502.0;;;18.8;39.14
33913;BME280;20200;52.084;5.224;2023-04-08T08:34:07;153624.0;;;19.29;38.62
33913;BME280;20200;52.084;5.224;2023-04-08T08:35:43;153574.0;;;19.09;38.78
33913;BME280;20200;52.084;5.224;2023-04-08T08:37:19;153499.0;;;18.79;38.83
33913;BME280;20200;52.084;5.224;2023-04-08T08:40:32;153734.0;;;19.73;37.53
33913;BME280;20200;52.084;5.224;2023-04-08T08:42:18;153757.0;;;19.82;37.24
33913;BME280;20200;52.084;5.224;2023-04-08T08:43:55;153809.0;;;20.02;37.32
33913;BME280;20200;52.084;5.224;2023-04-08T08:45:32;153882.0;;;20.31;36.31
33913;BME280;20200;52.084;5.224;2023-04-08T08:48:44;153830.0;;;20.11;36.14
33913;BME280;20200;52.084;5.224;2023-04-08T08:50:21;153976.0;;;20.68;35.21
33913;BME280;20200;52.084;5.224;2023-04-08T08:51:57;153940.0;;;20.54;35.51
33913;BME280;20200;52.084;5.224;2023-04-08T08:55:12;153946.0;;;20.56;35.32
33913;BME280;20200;52.084;5.224;2023-04-08T08:56:48;154015.0;;;20.84;35.19
33913;BME280;20200;52.084;5.224;2023-04-08T08:58:25;153932.0;;;20.51;35.14
33913;BME280;20200;52.084;5.224;2023-04-08T09:00:02;153988.0;;;20.73;34.89
33913;BME280;20200;52.084;5.224;2023-04-08T09:03:15;153920.0;;;20.46;34.69
33913;BME280;20200;52.084;5.224;2023-04-08T09:04:56;154028.0;;;20.89;34.53
33913;BME280;20200;52.084;5.224;2023-04-08T09:06:35;154057.0;;;21.0;34.0
33913;BME280;20200;52.084;5.224;2023-04-08T09:09:58;153958.0;;;20.61;33.24
33913;BME280;20200;52.084;5.224;2023-04-08T09:11:36;153872.0;;;20.27;32.71
33913;BME280;20200;52.084;5.224;2023-04-08T09:13:12;154015.0;;;20.84;32.6
33913;BME280;20200;52.084;5.224;2023-04-08T09:14:48;154039.0;;;20.93;32.53
33913;BME280;20200;52.084;5.224;2023-04-08T09:18:01;154130.0;;;21.29;31.78
33913;BME280;20200;52.084;5.224;2023-04-08T09:19:38;154087.0;;;21.12;30.96
33913;BME280;20200;52.084;5.224;2023-04-08T09:21:15;154169.0;;;21.45;30.58
33913;BME280;20200;52.084;5.224;2023-04-08T09:24:33;154139.0;;;21.33;31.8
33913;BME280;20200;52.084;5.224;2023-04-08T09:26:12;154247.0;;;21.76;31.4
33913;BME280;20200;52.084;5.224;2023-04-08T09:27:50;154138.0;;;21.33;31.5
33913;BME280;20200;52.084;5.224;2023-04-08T09:29:26;154139.0;;;21.33;31.01
33913;BME280;20200;52.084;5.224;2023-04-08T09:32:55;154252.0;;;21.78;30.47
33913;BME280;20200;52.084;5.224;2023-04-08T09:34:31;154246.0;;;21.75;31.65
33913;BME280;20200;52.084;5.224;2023-04-08T09:36:07;154213.0;;;21.62;30.46
33913;BME280;20200;52.084;5.224;2023-04-08T09:37:44;154347.0;;;22.15;30.24
33913;BME280;20200;52.084;5.224;2023-04-08T09:40:57;154328.0;;;22.08;31.01
33913;BME280;20200;52.084;5.224;2023-04-08T09:42:39;154415.0;;;22.42;30.87
33913;BME280;20200;52.084;5.224;2023-04-08T09:44:16;154422.0;;;22.45;30.36
33913;BME280;20200;52.084;5.224;2023-04-08T09:47:37;154322.0;;;22.05;30.04
33913;BME280;20200;52.084;5.224;2023-04-08T09:49:25;154179.0;;;21.49;29.88
33913;BME280;20200;52.084;5.224;2023-04-08T09:51:04;153980.0;;;20.7;30.4
33913;BME280;20200;52.084;5.224;2023-04-08T09:52:43;154130.0;;;21.29;29.95
33913;BME280;20200;52.084;5.224;2023-04-08T09:54:23;154131.0;;;21.3;30.5
33913;BME280;20200;52.084;5.224;2023-04-08T09:57:50;154258.0;;;21.8;30.32
33913;BME280;20200;52.084;5.224;2023-04-08T09:59:30;154288.0;;;21.92;30.09
33913;BME280;20200;52.084;5.224;2023-04-08T10:01:13;154392.0;;;22.33;29.35
33913;BME280;20200;52.084;5.224;2023-04-08T10:02:55;154449.0;;;22.55;29.47
33913;BME280;20200;52.084;5.224;2023-04-08T10:06:16;154532.0;;;22.88;29.5
33913;BME280;20200;52.084;5.224;2023-04-08T10:07:54;154449.0;;;22.56;29.16
33913;BME280;20200;52.084;5.224;2023-04-08T10:09:31;154363.0;;;22.22;29.02
33913;BME280;20200;52.084;5.224;2023-04-08T10:11:08;154420.0;;;22.44;28.37
33913;BME280;20200;52.084;5.224;2023-04-08T10:14:21;154379.0;;;22.28;28.41
33913;BME280;20200;52.084;5.224;2023-04-08T10:16:29;154478.0;;;22.67;28.97
33913;BME280;20200;52.084;5.224;2023-04-08T10:18:36;154428.0;;;22.47;28.31
33913;BME280;20200;52.084;5.224;2023-04-08T10:20:40;154346.0;;;22.15;28.85
33913;BME280;20200;52.084;5.224;2023-04-08T10:22:49;154397.0;;;22.35;28.04
33913;BME280;20200;52.084;5.224;2023-04-08T10:24:25;154350.0;;;22.17;27.87
33913;BME280;20200;52.084;5.224;2023-04-08T10:26:29;154235.0;;;21.71;28.84
33913;BME280;20200;52.084;5.224;2023-04-08T10:28:23;154507.0;;;22.79;28.76
33913;BME280;20200;52.084;5.224;2023-04-08T10:29:59;154633.0;;;23.28;28.49
33913;BME280;20200;52.084;5.224;2023-04-08T10:33:16;154540.0;;;22.92;27.85
33913;BME280;20200;52.084;5.224;2023-04-08T10:34:54;154666.0;;;23.41;27.74
33913;BME280;20200;52.084;5.224;2023-04-08T10:36:30;154556.0;;;22.98;29.06
33913;BME280;20200;52.084;5.224;2023-04-08T10:39:48;154709.0;;;23.58;28.76
33913;BME280;20200;52.084;5.224;2023-04-08T10:41:24;154594.0;;;23.13;28.21
33913;BME280;20200;52.084;5.224;2023-04-08T10:43:00;154431.0;;;22.48;28.92
33913;BME280;20200;52.084;5.224;2023-04-08T10:44:36;154417.0;;;22.43;29.13
33913;BME280;20200;52.084;5.224;2023-04-08T10:47:48;154668.0;;;23.42;28.47
33913;BME280;20200;52.084;5.224;2023-04-08T10:49:31;154731.0;;;23.67;28.0
33913;BME280;20200;52.084;5.224;2023-04-08T10:51:08;154498.0;;;22.75;28.22
33913;BME280;20200;52.084;5.224;2023-04-08T10:54:22;154663.0;;;23.4;29.04
33913;BME280;20200;52.084;5.224;2023-04-08T10:56:07;154674.0;;;23.45;27.83
33913;BME280;20200;52.084;5.224;2023-04-08T10:57:43;154552.0;;;22.96;29.61
33913;BME280;20200;52.084;5.224;2023-04-08T10:59:27;154738.0;;;23.7;27.98
33913;BME280;20200;52.084;5.224;2023-04-08T11:02:40;154812.0;;;23.99;26.39
33913;BME280;20200;52.084;5.224;2023-04-08T11:04:17;154870.0;;;24.22;26.03
33913;BME280;20200;52.084;5.224;2023-04-08T11:05:56;154961.0;;;24.58;24.54
33913;BME280;20200;52.084;5.224;2023-04-08T11:07:39;154925.0;;;24.44;24.61